createdAt,value
2017-10-14T00:01:23.826Z,99.90
2017-10-14T00:03:52.119Z,99.90
2017-10-14T00:06:20.419Z,99.90
2017-10-14T00:08:48.722Z,99.90
2017-10-14T00:11:17.023Z,99.90
2017-10-14T00:13:46.123Z,99.90
2017-10-14T00:16:15.200Z,99.90
2017-10-14T00:18:43.507Z,99.90
2017-10-14T00:21:11.807Z,99.90
2017-10-14T00:23:40.106Z,99.90
2017-10-14T00:26:09.169Z,99.90
2017-10-14T00:28:37.458Z,99.90
2017-10-14T00:31:05.757Z,99.90
2017-10-14T00:33:34.048Z,99.90
2017-10-14T00:36:02.562Z,99.90
2017-10-14T00:38:30.883Z,99.90
2017-10-14T00:40:59.175Z,99.90
2017-10-14T00:43:27.476Z,99.90
2017-10-14T00:45:55.768Z,99.90
2017-10-14T00:48:24.075Z,99.90
2017-10-14T00:50:52.399Z,99.90
2017-10-14T00:53:20.691Z,99.90
2017-10-14T00:55:49.751Z,99.90
2017-10-14T00:58:18.053Z,99.90
2017-10-14T01:00:46.350Z,99.90
2017-10-14T01:03:14.995Z,99.90
2017-10-14T01:05:43.296Z,99.90
2017-10-14T01:08:11.589Z,99.90
2017-10-14T01:10:39.888Z,99.90
2017-10-14T01:13:08.175Z,99.90
2017-10-14T01:15:36.470Z,99.90
2017-10-14T01:18:04.930Z,99.90
2017-10-14T01:20:33.226Z,99.90
2017-10-14T01:23:01.519Z,99.90
2017-10-14T01:25:29.811Z,99.90
2017-10-14T01:27:58.142Z,99.90
2017-10-14T01:30:26.431Z,99.90
2017-10-14T01:32:54.732Z,99.90
2017-10-14T01:35:23.061Z,99.90
2017-10-14T01:37:51.352Z,99.90
2017-10-14T01:40:19.730Z,99.90
2017-10-14T01:42:48.135Z,99.90
2017-10-14T01:45:16.490Z,99.90
2017-10-14T01:47:45.591Z,99.90
2017-10-14T01:50:14.764Z,99.90
2017-10-14T01:52:43.063Z,99.90
2017-10-14T01:55:11.356Z,99.90
2017-10-14T01:57:39.651Z,99.90
2017-10-14T02:00:08.717Z,99.90
2017-10-14T02:02:37.179Z,99.90
2017-10-14T02:05:06.253Z,99.90
2017-10-14T02:07:34.592Z,99.90
2017-10-14T02:10:02.934Z,99.90
2017-10-14T02:12:31.232Z,99.90
2017-10-14T02:14:59.531Z,99.90
2017-10-14T02:17:27.831Z,99.90
2017-10-14T02:19:56.892Z,99.90
2017-10-14T02:22:25.187Z,99.90
2017-10-14T02:24:53.490Z,99.90
2017-10-14T02:27:22.228Z,99.90
2017-10-14T02:29:51.289Z,99.90
2017-10-14T02:32:19.579Z,99.90
2017-10-14T02:34:47.876Z,99.90
2017-10-14T02:37:16.178Z,99.90
2017-10-14T02:39:44.467Z,99.90
2017-10-14T02:42:13.948Z,99.90
2017-10-14T02:44:42.238Z,99.90
2017-10-14T02:47:10.564Z,99.90
2017-10-14T02:49:38.863Z,99.90
2017-10-14T02:52:07.922Z,99.90
2017-10-14T02:54:36.223Z,99.90
2017-10-14T02:57:04.524Z,99.90
2017-10-14T02:59:32.825Z,99.90
2017-10-14T03:02:01.123Z,99.90
2017-10-14T03:04:30.184Z,99.90
2017-10-14T03:06:58.480Z,99.90
2017-10-14T03:09:26.766Z,99.90
2017-10-14T03:11:55.063Z,99.90
2017-10-14T03:14:23.359Z,99.90
2017-10-14T03:16:51.655Z,99.90
2017-10-14T03:19:19.946Z,99.90
2017-10-14T03:21:48.633Z,99.90
2017-10-14T03:24:16.972Z,99.90
2017-10-14T03:26:45.283Z,99.90
2017-10-14T03:29:13.579Z,99.90
2017-10-14T03:31:41.868Z,99.90
2017-10-14T03:34:10.172Z,99.90
2017-10-14T03:36:38.471Z,99.90
2017-10-14T03:39:07.527Z,99.90
2017-10-14T03:41:35.828Z,99.90
2017-10-14T03:44:04.115Z,99.90
2017-10-14T03:46:32.412Z,99.90
2017-10-14T03:49:00.709Z,99.90
2017-10-14T03:51:29.005Z,99.90
2017-10-14T03:53:57.303Z,99.90
2017-10-14T03:56:25.623Z,99.90
2017-10-14T03:58:54.294Z,99.90
2017-10-14T04:01:22.598Z,99.90
2017-10-14T04:03:50.896Z,99.90
2017-10-14T04:06:19.960Z,99.90
2017-10-14T04:08:48.254Z,99.90
2017-10-14T04:11:16.548Z,99.90
2017-10-14T04:13:44.839Z,99.90
2017-10-14T04:16:13.143Z,99.90
2017-10-14T04:18:41.715Z,99.90
2017-10-14T04:21:10.018Z,99.90
2017-10-14T04:23:38.317Z,99.90
2017-10-14T04:26:06.604Z,99.90
2017-10-14T04:28:34.928Z,99.90
2017-10-14T04:31:03.226Z,99.90
2017-10-14T04:33:31.525Z,99.90
2017-10-14T04:35:59.850Z,99.90
2017-10-14T04:38:28.135Z,99.90
2017-10-14T04:40:56.434Z,99.90
2017-10-14T04:43:24.732Z,99.90
2017-10-14T04:45:53.334Z,99.90
2017-10-14T04:48:22.402Z,99.90
2017-10-14T04:50:50.691Z,99.90
2017-10-14T04:53:19.034Z,99.90
2017-10-14T04:55:48.087Z,99.90
2017-10-14T04:58:16.379Z,99.90
2017-10-14T05:00:44.684Z,99.90
2017-10-14T05:03:12.981Z,99.90
2017-10-14T05:05:41.272Z,99.90
2017-10-14T05:08:09.573Z,99.90
2017-10-14T05:10:37.864Z,99.90
2017-10-14T05:13:06.461Z,99.90
2017-10-14T05:15:35.529Z,99.90
2017-10-14T05:18:03.819Z,99.90
2017-10-14T05:20:32.112Z,99.90
2017-10-14T05:23:00.416Z,99.90
2017-10-14T05:25:28.899Z,99.90
2017-10-14T05:27:57.192Z,99.90
2017-10-14T05:30:25.492Z,99.90
2017-10-14T05:32:53.784Z,99.90
2017-10-14T05:35:22.107Z,99.90
2017-10-14T05:37:51.179Z,99.90
2017-10-14T05:40:19.491Z,99.90
2017-10-14T05:42:47.792Z,99.90
2017-10-14T05:45:16.103Z,99.90
2017-10-14T05:47:44.399Z,99.90
2017-10-14T05:50:12.696Z,99.90
2017-10-14T05:52:41.019Z,99.90
2017-10-14T05:55:09.313Z,99.90
2017-10-14T05:57:38.366Z,99.90
2017-10-14T06:00:06.716Z,99.90
2017-10-14T06:02:35.775Z,99.90
2017-10-14T06:05:04.071Z,99.90
2017-10-14T06:07:32.373Z,99.90
2017-10-14T06:10:00.666Z,99.90
2017-10-14T06:12:29.225Z,99.90
2017-10-14T06:14:57.532Z,99.90
2017-10-14T06:17:25.830Z,99.90
2017-10-14T06:19:54.167Z,99.90
2017-10-14T06:22:22.450Z,99.90
2017-10-14T06:24:51.538Z,99.90
2017-10-14T06:27:20.600Z,99.90
2017-10-14T06:29:48.882Z,99.90
2017-10-14T06:32:17.167Z,99.90
2017-10-14T06:34:45.456Z,99.90
2017-10-14T06:37:13.739Z,99.90
2017-10-14T06:39:42.032Z,99.90
2017-10-14T06:42:10.325Z,99.90
2017-10-14T06:44:38.615Z,99.90
2017-10-14T06:47:06.903Z,99.90
2017-10-14T06:49:35.252Z,99.90
2017-10-14T06:52:04.308Z,99.90
2017-10-14T06:54:32.605Z,99.90
2017-10-14T06:57:00.893Z,99.90
2017-10-14T06:59:29.173Z,99.90
2017-10-14T07:01:57.466Z,99.90
2017-10-14T07:04:25.745Z,99.90
2017-10-14T07:06:54.060Z,99.90
2017-10-14T07:09:22.350Z,99.90
2017-10-14T07:11:50.636Z,99.90
2017-10-14T07:14:18.959Z,99.90
2017-10-14T07:16:48.017Z,99.90
2017-10-14T07:19:16.331Z,99.90
2017-10-14T07:21:44.626Z,99.90
2017-10-14T07:24:12.922Z,99.90
2017-10-14T07:26:41.198Z,99.90
2017-10-14T07:29:09.559Z,99.90
2017-10-14T07:31:37.908Z,99.90
2017-10-14T07:34:07.033Z,99.90
2017-10-14T07:36:35.357Z,99.90
2017-10-14T07:39:03.827Z,99.90
2017-10-14T07:41:32.220Z,99.90
2017-10-14T07:44:00.504Z,99.90
2017-10-14T07:46:28.808Z,99.90
2017-10-14T07:48:57.091Z,99.90
2017-10-14T07:51:25.383Z,99.90
2017-10-14T07:53:53.688Z,99.90
2017-10-14T07:56:22.202Z,99.90
2017-10-14T07:58:50.498Z,99.90
2017-10-14T08:01:18.794Z,99.90
2017-10-14T08:03:47.843Z,99.90
2017-10-14T08:06:16.124Z,99.90
2017-10-14T08:08:44.411Z,99.90
2017-10-14T08:11:12.699Z,99.90
2017-10-14T08:13:40.983Z,99.90
2017-10-14T08:16:09.266Z,99.90
2017-10-14T08:18:37.615Z,99.90
2017-10-14T08:21:05.909Z,99.90
2017-10-14T08:23:34.195Z,99.90
2017-10-14T08:26:02.511Z,99.90
2017-10-14T08:28:31.587Z,99.90
2017-10-14T08:30:59.917Z,99.90
2017-10-14T08:33:28.204Z,99.90
2017-10-14T08:35:56.489Z,99.90
2017-10-14T08:38:25.552Z,99.90
2017-10-14T08:40:53.830Z,99.90
2017-10-14T08:43:22.138Z,99.90
2017-10-14T08:45:50.431Z,99.90
2017-10-14T08:48:18.715Z,99.90
2017-10-14T08:50:47.003Z,99.90
2017-10-14T08:53:15.295Z,99.90
2017-10-14T08:55:43.574Z,99.90
2017-10-14T08:58:11.888Z,99.90
2017-10-14T09:00:40.945Z,99.90
2017-10-14T09:03:09.241Z,99.90
2017-10-14T09:05:37.534Z,99.90
2017-10-14T09:08:05.883Z,99.90
2017-10-14T09:10:34.932Z,99.90
2017-10-14T09:13:03.215Z,99.90
2017-10-14T09:15:31.523Z,99.90
2017-10-14T09:17:59.817Z,99.90
2017-10-14T09:20:28.135Z,99.90
2017-10-14T09:22:57.191Z,99.90
2017-10-14T09:25:25.502Z,99.90
2017-10-14T09:27:53.786Z,99.90
2017-10-14T09:30:22.068Z,99.90
2017-10-14T09:32:50.353Z,99.90
2017-10-14T09:35:18.640Z,99.90
2017-10-14T09:37:46.929Z,99.90
2017-10-14T09:40:15.215Z,99.90
2017-10-14T09:42:43.510Z,99.90
2017-10-14T09:45:11.795Z,99.90
2017-10-14T09:47:40.273Z,99.90
2017-10-14T09:50:08.575Z,99.90
2017-10-14T09:52:36.896Z,99.90
2017-10-14T09:55:05.183Z,99.90
2017-10-14T09:57:33.542Z,99.90
2017-10-14T10:00:02.671Z,99.90
2017-10-14T10:02:30.982Z,99.90
2017-10-14T10:05:00.084Z,99.90
2017-10-14T10:07:28.545Z,99.90
2017-10-14T10:09:56.935Z,99.90
2017-10-14T10:12:26.187Z,99.90
2017-10-14T10:14:54.571Z,99.90
2017-10-14T10:17:22.923Z,99.90
2017-10-14T10:19:51.263Z,99.90
2017-10-14T10:22:20.374Z,99.90
2017-10-14T10:24:48.807Z,99.90
2017-10-14T10:27:17.118Z,99.90
2017-10-14T10:29:45.404Z,99.90
2017-10-14T10:32:13.727Z,99.90
2017-10-14T10:34:42.878Z,99.90
2017-10-14T10:37:11.256Z,99.90
2017-10-14T10:39:39.594Z,99.90
2017-10-14T10:42:07.966Z,99.90
2017-10-14T10:44:36.370Z,99.90
2017-10-14T10:47:06.512Z,99.90
2017-10-14T10:49:34.876Z,99.90
2017-10-14T10:52:03.224Z,99.90
2017-10-14T10:54:31.588Z,99.90
2017-10-14T10:57:01.055Z,99.90
2017-10-14T10:59:29.496Z,99.90
2017-10-14T11:01:57.990Z,99.90
2017-10-14T11:04:27.176Z,99.90
2017-10-14T11:06:55.556Z,99.90
2017-10-14T11:09:24.782Z,99.90
2017-10-14T11:11:53.139Z,99.90
2017-10-14T11:14:21.914Z,99.90
2017-10-14T11:16:50.987Z,99.90
2017-10-14T11:19:19.308Z,99.90
2017-10-14T11:21:48.416Z,99.90
2017-10-14T11:24:16.731Z,99.90
2017-10-14T11:26:45.027Z,99.90
2017-10-14T11:29:13.316Z,99.90
2017-10-14T11:31:41.608Z,99.90
2017-10-14T11:34:09.899Z,99.90
2017-10-14T11:36:38.178Z,99.90
2017-10-14T11:39:06.535Z,99.90
2017-10-14T11:41:34.872Z,99.90
2017-10-14T11:44:03.223Z,99.90
2017-10-14T11:46:32.294Z,99.90
2017-10-14T11:49:00.652Z,99.90
2017-10-14T11:51:29.248Z,99.90
2017-10-14T11:53:57.564Z,99.90
2017-10-14T11:56:25.968Z,99.90
2017-10-14T11:58:54.354Z,99.90
2017-10-14T12:01:22.645Z,99.90
2017-10-14T12:03:50.944Z,99.90
2017-10-14T12:06:19.236Z,99.90
2017-10-14T12:08:47.591Z,99.90
2017-10-14T12:11:15.911Z,99.90
2017-10-14T12:13:44.233Z,99.90
2017-10-14T12:16:13.355Z,99.90
2017-10-14T12:18:41.634Z,99.90
2017-10-14T12:21:09.931Z,99.90
2017-10-14T12:23:38.224Z,99.90
2017-10-14T12:26:06.540Z,99.90
2017-10-14T12:28:34.840Z,99.90
2017-10-14T12:31:03.204Z,99.90
2017-10-14T12:33:31.532Z,99.90
2017-10-14T12:35:59.844Z,99.90
2017-10-14T12:38:28.299Z,99.90
2017-10-14T12:40:56.702Z,99.90
2017-10-14T12:43:25.868Z,99.90
2017-10-14T12:45:54.187Z,99.90
2017-10-14T12:48:22.496Z,99.90
2017-10-14T12:50:50.782Z,99.90
2017-10-14T12:53:19.147Z,99.90
2017-10-14T12:55:47.458Z,99.90
2017-10-14T12:58:15.755Z,99.90
2017-10-14T13:00:44.896Z,99.90
2017-10-14T13:03:13.291Z,99.90
2017-10-14T13:05:41.649Z,99.90
2017-10-14T13:08:10.305Z,99.90
2017-10-14T13:10:38.697Z,99.90
2017-10-14T13:13:07.018Z,99.90
2017-10-14T13:15:35.420Z,99.90
2017-10-14T13:18:03.796Z,99.90
2017-10-14T13:20:32.150Z,99.90
2017-10-14T13:23:00.524Z,99.90
2017-10-14T13:25:28.871Z,99.90
2017-10-14T13:27:58.141Z,99.90
2017-10-14T13:30:26.538Z,99.90
2017-10-14T13:32:54.931Z,99.90
2017-10-14T13:35:23.268Z,99.90
2017-10-14T13:37:51.616Z,99.90
2017-10-14T13:40:19.944Z,99.90
2017-10-14T13:42:48.235Z,99.90
2017-10-14T13:45:16.551Z,99.90
2017-10-14T13:47:44.840Z,99.90
2017-10-14T13:50:13.199Z,97.90
2017-10-14T13:52:41.484Z,96.70
2017-10-14T13:55:09.782Z,98.40
2017-10-14T13:57:38.860Z,98.90
2017-10-14T14:00:07.215Z,99.00
2017-10-14T14:02:35.569Z,98.50
2017-10-14T14:05:04.628Z,98.00
2017-10-14T14:07:32.950Z,98.00
2017-10-14T14:10:01.276Z,97.40
2017-10-14T14:12:29.637Z,96.00
2017-10-14T14:14:58.015Z,95.90
2017-10-14T14:17:26.369Z,96.20
2017-10-14T14:19:54.740Z,96.40
2017-10-14T14:22:23.087Z,96.20
2017-10-14T14:24:51.486Z,95.20
2017-10-14T14:27:19.775Z,95.40
2017-10-14T14:29:48.088Z,96.40
2017-10-14T14:32:17.178Z,96.60
2017-10-14T14:34:45.486Z,96.60
2017-10-14T14:37:14.547Z,98.40
2017-10-14T14:39:42.950Z,98.40
2017-10-14T14:42:11.235Z,97.70
2017-10-14T14:44:39.559Z,98.80
2017-10-14T14:47:08.603Z,98.40
2017-10-14T14:49:36.914Z,98.40
2017-10-14T14:52:05.224Z,98.60
2017-10-14T14:54:33.515Z,98.80
2017-10-14T14:57:01.878Z,99.90
2017-10-14T14:59:30.268Z,99.90
2017-10-14T15:01:58.670Z,99.90
2017-10-14T15:04:27.009Z,99.90
2017-10-14T15:06:55.421Z,99.90
2017-10-14T15:09:23.777Z,99.90
2017-10-14T15:11:52.097Z,99.90
2017-10-14T15:14:20.462Z,99.90
2017-10-14T15:16:49.508Z,99.90
2017-10-14T15:19:18.624Z,99.90
2017-10-14T15:21:46.907Z,99.90
2017-10-14T15:24:15.227Z,99.90
2017-10-14T15:26:43.510Z,99.90
2017-10-14T15:29:11.816Z,99.90
2017-10-14T15:31:40.876Z,99.90
2017-10-14T15:34:09.180Z,99.90
2017-10-14T15:36:37.469Z,99.90
2017-10-14T15:39:05.804Z,99.90
2017-10-14T15:41:34.929Z,99.90
2017-10-14T15:44:03.279Z,99.90
2017-10-14T15:46:32.698Z,99.90
2017-10-14T15:49:01.389Z,99.90
2017-10-14T15:51:29.731Z,99.90
2017-10-14T15:53:58.087Z,99.90
2017-10-14T15:56:26.483Z,99.90
2017-10-14T15:58:54.950Z,99.90
2017-10-14T16:01:23.297Z,99.90
2017-10-14T16:03:51.722Z,99.90
2017-10-14T16:06:20.030Z,99.90
2017-10-14T16:08:48.352Z,99.90
2017-10-14T16:11:16.790Z,99.90
2017-10-14T16:13:45.091Z,99.90
2017-10-14T16:16:13.378Z,99.90
2017-10-14T16:18:41.676Z,99.90
2017-10-14T16:21:09.964Z,99.90
2017-10-14T16:23:38.286Z,99.90
2017-10-14T16:26:06.620Z,99.90
2017-10-14T16:28:34.999Z,99.90
2017-10-14T16:31:03.477Z,99.90
2017-10-14T16:33:31.820Z,99.90
2017-10-14T16:36:00.190Z,99.90
2017-10-14T16:38:28.576Z,99.90
2017-10-14T16:40:56.975Z,99.90
2017-10-14T16:43:26.187Z,99.90
2017-10-14T16:45:54.588Z,99.90
2017-10-14T16:48:23.100Z,99.90
2017-10-14T16:50:52.154Z,99.90
2017-10-14T16:53:20.489Z,99.90
2017-10-14T16:55:49.553Z,99.90
2017-10-14T16:58:17.855Z,99.90
2017-10-14T17:00:46.141Z,99.90
2017-10-14T17:03:14.427Z,99.90
2017-10-14T17:05:42.755Z,99.90
2017-10-14T17:08:11.813Z,99.90
2017-10-14T17:10:40.119Z,99.90
2017-10-14T17:13:08.430Z,99.90
2017-10-14T17:15:36.748Z,99.90
2017-10-14T17:18:05.829Z,99.90
2017-10-14T17:20:34.165Z,99.90
2017-10-14T17:23:02.792Z,99.90
2017-10-14T17:25:31.178Z,99.90
2017-10-14T17:28:00.346Z,99.90
2017-10-14T17:30:29.290Z,99.90
2017-10-14T17:32:57.614Z,99.90
2017-10-14T17:35:26.717Z,99.90
2017-10-14T17:37:55.061Z,99.90
2017-10-14T17:40:23.388Z,99.90
2017-10-14T17:42:51.956Z,99.90
2017-10-14T17:45:20.259Z,99.90
2017-10-14T17:47:48.552Z,99.90
2017-10-14T17:50:16.842Z,99.90
2017-10-14T17:52:45.173Z,99.90
2017-10-14T17:55:13.455Z,99.90
2017-10-14T17:57:42.535Z,99.90
2017-10-14T18:00:10.827Z,99.90
2017-10-14T18:02:39.120Z,99.90
2017-10-14T18:05:08.213Z,99.90
2017-10-14T18:07:36.563Z,99.90
2017-10-14T18:10:04.930Z,99.90
2017-10-14T18:12:33.283Z,99.90
2017-10-14T18:15:01.603Z,99.90
2017-10-14T18:17:30.677Z,99.90
2017-10-14T18:19:59.020Z,99.90
2017-10-14T18:22:27.418Z,99.90
2017-10-14T18:24:55.758Z,99.90
2017-10-14T18:27:24.137Z,99.90
2017-10-14T18:29:53.268Z,99.90
2017-10-14T18:32:21.644Z,99.90
2017-10-14T18:34:49.962Z,99.90
2017-10-14T18:37:19.013Z,99.90
2017-10-14T18:39:47.596Z,99.90
2017-10-14T18:42:15.903Z,99.90
2017-10-14T18:44:44.202Z,99.90
2017-10-14T18:47:12.499Z,99.90
2017-10-14T18:49:41.060Z,99.90
2017-10-14T18:52:09.377Z,99.90
2017-10-14T18:54:37.720Z,99.90
2017-10-14T18:57:06.058Z,99.90
2017-10-14T18:59:34.398Z,99.90
2017-10-14T19:02:02.747Z,99.90
2017-10-14T19:04:31.129Z,99.90
2017-10-14T19:06:59.490Z,99.90
2017-10-14T19:09:27.871Z,99.90
2017-10-14T19:11:56.351Z,99.90
2017-10-14T19:14:24.846Z,99.90
2017-10-14T19:16:53.191Z,99.90
2017-10-14T19:19:21.495Z,99.90
2017-10-14T19:21:49.904Z,99.90
2017-10-14T19:24:18.990Z,99.90
2017-10-14T19:26:48.099Z,99.90
2017-10-14T19:29:17.166Z,99.90
2017-10-14T19:31:45.565Z,99.90
2017-10-14T19:34:13.879Z,99.90
2017-10-14T19:36:42.195Z,99.90
2017-10-14T19:39:11.283Z,99.90
2017-10-14T19:41:39.610Z,99.90
2017-10-14T19:44:08.673Z,99.90
2017-10-14T19:46:37.785Z,99.90
2017-10-14T19:49:06.146Z,99.90
2017-10-14T19:51:34.467Z,99.90
2017-10-14T19:54:03.076Z,99.90
2017-10-14T19:56:32.152Z,99.90
2017-10-14T19:59:00.569Z,99.90
2017-10-14T20:01:29.694Z,99.90
2017-10-14T20:03:58.232Z,99.90
2017-10-14T20:06:26.587Z,99.90
2017-10-14T20:08:55.019Z,99.90
2017-10-14T20:11:23.776Z,99.90
2017-10-14T20:13:52.882Z,99.90
2017-10-14T20:16:21.240Z,99.90
2017-10-14T20:18:49.615Z,99.90
2017-10-14T20:21:17.916Z,99.90
2017-10-14T20:23:46.205Z,99.90
2017-10-14T20:26:14.512Z,99.90
2017-10-14T20:28:42.820Z,99.90
2017-10-14T20:31:11.133Z,99.90
2017-10-14T20:33:39.452Z,99.90
2017-10-14T20:36:07.790Z,99.90
2017-10-14T20:38:36.854Z,99.90
2017-10-14T20:41:05.147Z,99.90
2017-10-14T20:43:33.475Z,99.90
2017-10-14T20:46:02.574Z,99.90
2017-10-14T20:48:31.708Z,99.90
2017-10-14T20:51:00.026Z,99.90
2017-10-14T20:53:28.414Z,99.90
2017-10-14T20:55:56.779Z,99.90
2017-10-14T20:58:25.224Z,99.90
2017-10-14T21:00:54.405Z,99.90
2017-10-14T21:03:22.784Z,99.90
2017-10-14T21:05:51.133Z,99.90
2017-10-14T21:08:19.514Z,99.90
2017-10-14T21:10:47.829Z,99.90
2017-10-14T21:13:16.171Z,99.90
2017-10-14T21:15:44.446Z,99.90
2017-10-14T21:18:12.745Z,99.90
2017-10-14T21:20:41.025Z,99.90
2017-10-14T21:23:09.343Z,99.90
2017-10-14T21:25:38.402Z,99.90
2017-10-14T21:28:06.700Z,99.90
2017-10-14T21:30:34.976Z,99.90
2017-10-14T21:33:03.284Z,99.90
2017-10-14T21:35:31.635Z,99.90
2017-10-14T21:38:00.052Z,99.90
2017-10-14T21:40:28.962Z,99.90
2017-10-14T21:42:57.380Z,99.90
2017-10-14T21:45:25.723Z,99.90
2017-10-14T21:47:54.021Z,99.90
2017-10-14T21:50:22.302Z,99.90
2017-10-14T21:52:50.608Z,99.90
2017-10-14T21:55:20.395Z,99.90
2017-10-14T21:57:48.678Z,99.90
2017-10-14T22:00:16.988Z,99.90
2017-10-14T22:02:45.268Z,99.90
2017-10-14T22:05:14.312Z,99.90
2017-10-14T22:07:43.503Z,99.90
2017-10-14T22:10:11.787Z,99.90
2017-10-14T22:12:40.111Z,99.90
2017-10-14T22:15:09.508Z,99.90
2017-10-14T22:17:37.802Z,99.90
2017-10-14T22:20:06.082Z,99.90
2017-10-14T22:22:34.367Z,99.90
2017-10-14T22:25:02.648Z,99.90
2017-10-14T22:27:31.687Z,99.90
2017-10-14T22:30:00.762Z,99.90
2017-10-14T22:32:29.036Z,99.90
2017-10-14T22:34:57.343Z,99.90
2017-10-14T22:37:25.619Z,99.90
2017-10-14T22:39:53.899Z,99.90
2017-10-14T22:42:22.947Z,99.90
2017-10-14T22:44:51.229Z,99.90
2017-10-14T22:47:19.536Z,99.90
2017-10-14T22:49:48.576Z,99.90
2017-10-14T22:52:16.883Z,99.90
2017-10-14T22:54:45.171Z,99.90
2017-10-14T22:57:13.450Z,99.90
2017-10-14T22:59:41.761Z,99.90
2017-10-14T23:02:10.660Z,99.90
2017-10-14T23:04:38.942Z,99.90
2017-10-14T23:07:07.263Z,99.90
2017-10-14T23:09:35.541Z,99.90
2017-10-14T23:12:03.859Z,99.90
2017-10-14T23:14:32.363Z,99.90
2017-10-14T23:17:01.420Z,99.90
2017-10-14T23:19:29.702Z,99.90
2017-10-14T23:21:57.988Z,99.90
2017-10-14T23:24:26.296Z,99.90
2017-10-14T23:26:54.575Z,99.90
2017-10-14T23:29:22.887Z,99.90
2017-10-14T23:31:51.176Z,99.90
2017-10-14T23:34:19.459Z,99.90
2017-10-14T23:36:47.763Z,99.90
2017-10-14T23:39:16.075Z,99.90
2017-10-14T23:41:44.391Z,99.90
2017-10-14T23:44:12.680Z,99.90
2017-10-14T23:46:40.993Z,99.90
2017-10-14T23:49:09.266Z,99.90
2017-10-14T23:51:37.549Z,99.90
2017-10-14T23:54:05.834Z,99.90
2017-10-14T23:56:34.411Z,99.90
2017-10-14T23:59:02.726Z,99.90
